Terminal Aerodrome Forecast
Issued by NWS Charleston, WV

Current Version | Previous Version | Graphics & Text | Print | Product List | Glossary On
Versions: 1 2 3 4 5 6 7 8 9 10 11 12 13 14 15 16 17 18 19 20 21 22 23 24
000
FTUS41 KRLX 272300 RRA
TAFBKW
TAF
KBKW 272341Z 2800/2824 25010G18KT P6SM SCT025
     FM280600 29009KT P6SM SCT020 BKN100
     FM281000 29011G17KT P6SM BKN030
     FM281500 31010G15KT P6SM SCT060=

USA.gov is the U.S. government's official web portal to all federal, state and local government web resources and services.